Time;durP1;ratioP1;P1;durP2;ratioP2;P2;SDS_P1;SDS_P2;PMS_P1;PMS_P2;Temp;Humidity;BMP_temperature;BMP_pressure;BME280_temperature;BME280_humidity;BME280_pressure;Samples;Min_cycle;Max_cycle;Signal;HPM_P1;HPM_P2
2023/09/26 00:00:58;;;;;;;0.77;0.65;;;14.40;99.90;;;;;;5059509;28;20057;-72
2023/09/26 00:03:25;;;;;;;0.65;0.65;;;14.40;99.90;;;;;;5061858;28;20054;-72
2023/09/26 00:05:54;;;;;;;0.30;0.30;;;14.40;99.90;;;;;;5062388;28;20041;-72
2023/09/26 00:08:19;;;;;;;0.40;0.40;;;14.30;99.90;;;;;;5070217;28;20047;-72
2023/09/26 00:10:48;;;;;;;1.13;1.00;;;14.30;99.90;;;;;;5045470;28;20041;-72
2023/09/26 00:13:15;;;;;;;0.65;0.40;;;14.30;99.90;;;;;;5067605;28;20040;-72
2023/09/26 00:15:41;;;;;;;0.40;0.40;;;14.30;99.90;;;;;;5057497;28;20445;-72
2023/09/26 00:18:08;;;;;;;0.40;0.40;;;14.30;99.90;;;;;;5063560;28;20446;-72
2023/09/26 00:20:38;;;;;;;1.15;0.73;;;14.30;99.90;;;;;;5044522;28;20058;-72
2023/09/26 00:23:04;;;;;;;0.30;0.30;;;14.30;99.90;;;;;;5067099;28;20455;-72
2023/09/26 00:25:30;;;;;;;1.33;0.90;;;14.30;99.90;;;;;;5055232;28;20036;-72
2023/09/26 00:27:57;;;;;;;0.60;0.60;;;14.30;99.90;;;;;;5043984;28;20033;-72
2023/09/26 00:30:25;;;;;;;0.57;0.57;;;14.30;99.90;;;;;;5066557;28;20029;-71
2023/09/26 00:32:51;;;;;;;;;;;14.30;99.90;;;;;;5064756;28;20255;-72
2023/09/26 00:35:17;;;;;;;0.30;0.30;;;14.30;99.90;;;;;;5062426;28;19916;-72
2023/09/26 00:37:48;;;;;;;0.60;0.60;;;14.30;99.90;;;;;;5069624;28;20123;-72
2023/09/26 00:40:16;;;;;;;0.45;0.45;;;14.30;99.90;;;;;;5045453;28;20040;-71
2023/09/26 00:42:42;;;;;;;0.40;0.40;;;14.30;99.90;;;;;;5035445;28;20499;-71
2023/09/26 00:45:09;;;;;;;0.70;0.70;;;14.20;99.90;;;;;;5059894;28;20090;-71
2023/09/26 00:47:35;;;;;;;1.92;0.90;;;14.20;99.90;;;;;;5058953;28;20045;-72
2023/09/26 00:50:09;;;;;;;0.32;0.32;;;14.20;99.90;;;;;;5057868;28;20110;-72
2023/09/26 00:52:36;;;;;;;0.40;0.40;;;14.20;99.90;;;;;;5047778;28;20036;-71
2023/09/26 00:55:04;;;;;;;0.40;0.40;;;14.20;99.90;;;;;;5057697;28;20482;-72
2023/09/26 00:57:35;;;;;;;;;;;14.10;99.90;;;;;;5054156;28;20045;-72
2023/09/26 01:00:02;;;;;;;0.38;0.35;;;14.10;99.90;;;;;;5064001;28;20329;-71
2023/09/26 01:02:28;;;;;;;0.35;0.35;;;14.10;99.90;;;;;;5052035;28;20083;-72
2023/09/26 01:04:54;;;;;;;0.40;0.40;;;14.00;99.90;;;;;;5059852;28;20075;-72
2023/09/26 01:07:21;;;;;;;0.73;0.73;;;14.00;99.90;;;;;;5038288;28;20652;-72
2023/09/26 01:09:48;;;;;;;0.22;0.22;;;13.90;99.90;;;;;;5068016;28;20064;-72
2023/09/26 01:12:14;;;;;;;0.80;0.80;;;13.80;99.90;;;;;;5064963;28;20055;-71
2023/09/26 01:14:40;;;;;;;0.70;0.70;;;13.80;99.90;;;;;;5061018;28;20086;-71
2023/09/26 01:17:06;;;;;;;0.50;0.50;;;13.60;99.90;;;;;;5069701;28;20039;-71
2023/09/26 01:19:32;;;;;;;0.40;0.40;;;13.60;99.90;;;;;;5060604;28;20139;-72
2023/09/26 01:21:58;;;;;;;0.80;0.80;;;13.40;99.90;;;;;;5049644;28;20127;-72
2023/09/26 01:24:24;;;;;;;0.38;0.38;;;13.30;99.90;;;;;;5067033;28;20115;-69
2023/09/26 01:26:49;;;;;;;0.50;0.50;;;13.20;99.90;;;;;;5067892;28;20051;-71
2023/09/26 01:29:15;;;;;;;0.40;0.40;;;13.20;99.90;;;;;;5069369;28;20037;-72
2023/09/26 01:31:42;;;;;;;0.55;0.55;;;13.10;99.90;;;;;;5050142;28;20070;-72
2023/09/26 01:34:07;;;;;;;0.50;0.50;;;13.10;99.90;;;;;;5048148;28;20037;-72
2023/09/26 01:36:33;;;;;;;0.65;0.65;;;13.00;99.90;;;;;;5039895;28;20039;-72
2023/09/26 01:38:59;;;;;;;0.73;0.73;;;13.00;99.90;;;;;;5060147;28;20130;-72
2023/09/26 01:41:27;;;;;;;0.60;0.60;;;12.90;99.90;;;;;;5064709;28;20685;-70
2023/09/26 01:43:52;;;;;;;0.40;0.40;;;12.90;99.90;;;;;;5059655;28;20043;-72
2023/09/26 01:46:20;;;;;;;3.33;0.50;;;12.80;99.90;;;;;;5048113;28;20082;-71
2023/09/26 01:48:46;;;;;;;0.40;0.40;;;12.80;99.90;;;;;;5063616;28;20041;-72
2023/09/26 01:51:13;;;;;;;0.73;0.73;;;12.70;99.90;;;;;;5053372;28;20086;-74
2023/09/26 01:53:38;;;;;;;0.82;0.82;;;12.60;99.90;;;;;;5062023;28;20045;-72
2023/09/26 01:56:04;;;;;;;0.40;0.40;;;12.50;99.90;;;;;;5060624;28;20063;-72
2023/09/26 01:58:31;;;;;;;0.80;0.80;;;12.40;99.90;;;;;;5053667;28;20474;-70
2023/09/26 02:00:56;;;;;;;0.60;0.60;;;12.30;99.90;;;;;;5057365;28;20059;-72
2023/09/26 02:03:22;;;;;;;0.40;0.40;;;12.20;99.90;;;;;;5069425;28;20048;-72
2023/09/26 02:05:48;;;;;;;0.50;0.50;;;12.30;99.90;;;;;;5034653;28;20037;-72
2023/09/26 02:08:16;;;;;;;0.50;0.50;;;12.20;99.90;;;;;;5063011;28;20040;-72
2023/09/26 02:10:42;;;;;;;0.50;0.50;;;12.20;99.90;;;;;;5059449;28;20417;-71
2023/09/26 02:13:08;;;;;;;0.40;0.40;;;12.20;99.90;;;;;;5063280;28;20032;-72
2023/09/26 02:15:35;;;;;;;0.52;0.52;;;12.10;99.90;;;;;;5070089;28;20496;-72
2023/09/26 02:18:01;;;;;;;0.50;0.50;;;12.10;99.90;;;;;;5068432;28;20505;-72
2023/09/26 02:20:26;;;;;;;0.35;0.35;;;12.10;99.90;;;;;;5066343;28;20086;-72
2023/09/26 02:22:52;;;;;;;0.50;0.50;;;12.10;99.90;;;;;;5065662;28;20094;-73
2023/09/26 02:25:20;;;;;;;0.52;0.52;;;12.10;99.90;;;;;;5062671;28;20111;-73
2023/09/26 02:27:47;;;;;;;0.50;0.50;;;12.00;99.90;;;;;;5057759;28;20043;-73
2023/09/26 02:30:24;;;;;;;0.63;0.63;;;12.00;99.90;;;;;;5061819;28;20044;-74
2023/09/26 02:32:50;;;;;;;0.40;0.40;;;12.00;99.90;;;;;;5061726;28;20040;-74
2023/09/26 02:35:18;;;;;;;0.95;0.90;;;11.90;99.90;;;;;;5061242;28;20051;-74
2023/09/26 02:37:44;;;;;;;0.50;0.50;;;11.90;99.90;;;;;;5069003;28;20097;-74
2023/09/26 02:40:11;;;;;;;0.47;0.47;;;11.80;99.90;;;;;;5060690;28;20072;-73
2023/09/26 02:42:38;;;;;;;0.30;0.30;;;11.80;99.90;;;;;;5054835;28;20094;-74
2023/09/26 02:45:04;;;;;;;0.30;0.30;;;11.80;99.90;;;;;;5057450;28;20071;-74
2023/09/26 02:47:30;;;;;;;0.63;0.63;;;11.80;99.90;;;;;;5065130;28;20795;-73
2023/09/26 02:49:56;;;;;;;0.43;0.43;;;11.70;99.90;;;;;;5057311;28;20050;-73
2023/09/26 02:52:25;;;;;;;0.40;0.40;;;11.70;99.90;;;;;;5057762;28;20124;-72
2023/09/26 02:54:51;;;;;;;0.30;0.30;;;11.70;99.90;;;;;;5051084;28;20526;-72
2023/09/26 02:57:18;;;;;;;0.55;0.55;;;11.70;99.90;;;;;;5036636;28;20041;-71
2023/09/26 02:59:44;;;;;;;0.35;0.35;;;11.70;99.90;;;;;;5058428;28;20049;-73
2023/09/26 03:02:10;;;;;;;0.40;0.40;;;11.60;99.90;;;;;;5062626;28;20039;-69
2023/09/26 03:04:35;;;;;;;0.40;0.40;;;11.60;99.90;;;;;;5051131;28;20055;-72
2023/09/26 03:07:01;;;;;;;1.98;0.47;;;11.60;99.90;;;;;;5057857;28;20637;-72
2023/09/26 03:09:28;;;;;;;0.55;0.55;;;11.50;99.90;;;;;;5062635;28;20068;-71
2023/09/26 03:11:53;;;;;;;0.65;0.52;;;11.50;99.90;;;;;;5059640;28;20142;-72
2023/09/26 03:14:20;;;;;;;0.82;0.70;;;11.50;99.90;;;;;;5064279;28;20520;-72
2023/09/26 03:16:45;;;;;;;0.30;0.30;;;11.50;99.90;;;;;;5052996;28;20050;-72
2023/09/26 03:19:12;;;;;;;0.47;0.47;;;11.50;99.90;;;;;;5067978;28;20493;-72
2023/09/26 03:21:37;;;;;;;0.57;0.57;;;11.40;99.90;;;;;;5057924;28;20475;-72
2023/09/26 03:24:03;;;;;;;0.68;0.68;;;11.40;99.90;;;;;;5053379;28;20050;-74
2023/09/26 03:26:29;;;;;;;0.50;0.50;;;11.40;99.90;;;;;;5061071;28;20507;-73
2023/09/26 03:28:54;;;;;;;0.40;0.40;;;11.30;99.90;;;;;;5061664;28;20076;-74
2023/09/26 03:31:20;;;;;;;0.95;0.95;;;11.30;99.90;;;;;;5045468;28;20039;-73
2023/09/26 03:33:48;;;;;;;0.43;0.43;;;11.30;99.90;;;;;;5045098;28;20105;-74
2023/09/26 03:36:13;;;;;;;0.40;0.40;;;11.30;99.90;;;;;;5058479;28;20036;-73
2023/09/26 03:38:39;;;;;;;0.40;0.40;;;11.30;99.90;;;;;;5053127;28;20047;-73
2023/09/26 03:41:06;;;;;;;0.70;0.70;;;11.20;99.90;;;;;;5054842;28;20051;-73
2023/09/26 03:43:32;;;;;;;0.50;0.50;;;11.20;99.90;;;;;;5041665;28;20048;-71
2023/09/26 03:46:06;;;;;;;0.68;0.68;;;11.00;99.90;;;;;;5049546;28;20501;-71
2023/09/26 03:48:33;;;;;;;0.40;0.40;;;11.00;99.90;;;;;;5068837;28;20122;-72
2023/09/26 03:51:09;;;;;;;0.40;0.40;;;10.90;99.90;;;;;;5042215;28;20036;-72
2023/09/26 03:53:36;;;;;;;0.50;0.50;;;10.80;99.90;;;;;;5045132;28;20497;-72
2023/09/26 03:56:02;;;;;;;0.38;0.38;;;10.80;99.90;;;;;;5043678;28;20044;-72
2023/09/26 03:58:27;;;;;;;0.75;0.75;;;10.70;99.90;;;;;;5044435;28;20442;-72
2023/09/26 04:00:53;;;;;;;0.30;0.30;;;10.70;99.90;;;;;;5042144;28;20461;-70
2023/09/26 04:03:20;;;;;;;0.38;0.38;;;10.70;99.90;;;;;;5063226;28;20097;-72
2023/09/26 04:05:48;;;;;;;0.50;0.50;;;10.70;99.90;;;;;;5055745;28;20032;-72
2023/09/26 04:08:16;;;;;;;0.38;0.38;;;10.60;99.90;;;;;;5068256;28;20497;-70
2023/09/26 04:10:42;;;;;;;0.52;0.52;;;10.70;99.90;;;;;;5056925;28;20029;-72
2023/09/26 04:13:08;;;;;;;0.50;0.50;;;10.70;99.90;;;;;;5042077;28;20513;-72
2023/09/26 04:15:38;;;;;;;0.50;0.50;;;10.70;99.90;;;;;;5052734;28;20043;-71
2023/09/26 04:18:07;;;;;;;0.65;0.65;;;10.70;99.90;;;;;;5069671;28;20051;-70
2023/09/26 04:20:36;;;;;;;0.43;0.43;;;10.70;99.90;;;;;;5045401;28;20501;-72
2023/09/26 04:23:03;;;;;;;0.63;0.63;;;10.60;99.90;;;;;;5040263;28;20509;-72
2023/09/26 04:25:34;;;;;;;0.35;0.35;;;10.60;99.90;;;;;;5063363;28;20543;-71
2023/09/26 04:28:00;;;;;;;0.50;0.50;;;10.60;99.90;;;;;;5069094;28;20055;-71
2023/09/26 04:30:26;;;;;;;0.30;0.30;;;10.60;99.90;;;;;;5060459;28;20466;-72
2023/09/26 04:32:51;;;;;;;0.52;0.52;;;10.60;99.90;;;;;;5062757;28;20028;-72
2023/09/26 04:35:18;;;;;;;0.50;0.50;;;10.60;99.90;;;;;;5055265;28;20040;-72
2023/09/26 04:37:44;;;;;;;0.43;0.43;;;10.60;99.90;;;;;;5058191;28;20687;-71
2023/09/26 04:40:10;;;;;;;0.60;0.60;;;10.50;99.90;;;;;;5061924;28;20039;-71
2023/09/26 04:42:45;;;;;;;0.55;0.55;;;10.50;99.90;;;;;;5067658;28;20048;-72
2023/09/26 04:45:10;;;;;;;0.40;0.40;;;10.50;99.90;;;;;;5065304;28;20124;-72
2023/09/26 04:47:36;;;;;;;0.40;0.40;;;10.50;99.90;;;;;;5069777;28;20115;-73
2023/09/26 04:50:03;;;;;;;0.50;0.50;;;10.50;99.90;;;;;;5062863;28;20459;-72
2023/09/26 04:52:28;;;;;;;0.60;0.60;;;10.50;99.90;;;;;;5049633;28;20516;-73
2023/09/26 04:54:54;;;;;;;0.50;0.50;;;10.50;99.90;;;;;;5054849;28;20071;-73
2023/09/26 04:57:20;;;;;;;0.95;0.95;;;10.50;99.90;;;;;;5068965;28;20438;-72
2023/09/26 04:59:46;;;;;;;0.40;0.40;;;10.50;99.90;;;;;;5044400;28;20036;-72
2023/09/26 05:02:11;;;;;;;0.40;0.40;;;10.50;99.90;;;;;;5060152;28;20090;-71
2023/09/26 05:04:37;;;;;;;0.45;0.45;;;10.50;99.90;;;;;;5056694;28;20047;-72
2023/09/26 05:07:03;;;;;;;0.60;0.60;;;10.50;99.90;;;;;;5066296;28;20481;-72
2023/09/26 05:09:28;;;;;;;0.55;0.55;;;10.50;99.90;;;;;;5044014;28;20433;-72
2023/09/26 05:11:54;;;;;;;0.40;0.40;;;10.50;99.90;;;;;;5066000;28;20050;-72
2023/09/26 05:14:20;;;;;;;0.60;0.60;;;10.50;99.90;;;;;;5059071;28;20039;-69
2023/09/26 05:16:45;;;;;;;1.00;0.60;;;10.50;99.90;;;;;;5050784;28;20044;-72
2023/09/26 05:19:11;;;;;;;0.40;0.40;;;10.50;99.90;;;;;;5053434;28;20078;-72
2023/09/26 05:21:36;;;;;;;0.30;0.30;;;10.50;99.90;;;;;;5043398;28;20046;-72
2023/09/26 05:24:03;;;;;;;0.50;0.50;;;10.50;99.90;;;;;;5055955;28;20036;-72
2023/09/26 05:26:29;;;;;;;0.30;0.30;;;10.50;99.90;;;;;;5063998;28;20427;-72
2023/09/26 05:28:54;;;;;;;0.75;0.75;;;10.50;99.90;;;;;;5072128;28;20436;-71
2023/09/26 05:31:20;;;;;;;0.40;0.40;;;10.50;99.90;;;;;;5047804;28;20577;-72
2023/09/26 05:33:46;;;;;;;0.50;0.50;;;10.50;99.90;;;;;;5054352;28;20409;-72
2023/09/26 05:36:11;;;;;;;0.40;0.40;;;10.50;99.90;;;;;;5059040;28;20040;-73
2023/09/26 05:38:37;;;;;;;0.63;0.63;;;10.50;99.90;;;;;;5062727;28;20065;-72
2023/09/26 05:41:05;;;;;;;0.43;0.40;;;10.60;99.90;;;;;;5062504;28;20047;-73
2023/09/26 05:43:31;;;;;;;0.63;0.63;;;10.60;99.90;;;;;;5062146;28;20041;-73
2023/09/26 05:45:57;;;;;;;0.40;0.40;;;10.60;99.90;;;;;;5070380;28;20118;-74
2023/09/26 05:48:23;;;;;;;0.43;0.43;;;10.60;99.90;;;;;;5062334;28;20426;-72
2023/09/26 05:50:56;;;;;;;0.50;0.50;;;10.70;99.90;;;;;;5058193;28;20059;-73
2023/09/26 05:53:22;;;;;;;0.40;0.40;;;10.70;99.90;;;;;;5036386;28;20056;-72
2023/09/26 05:55:51;;;;;;;0.30;0.30;;;10.80;99.90;;;;;;5059980;28;20036;-73
2023/09/26 05:58:18;;;;;;;1.05;0.63;;;10.80;99.90;;;;;;5060687;28;20443;-73
2023/09/26 06:00:46;;;;;;;0.32;0.32;;;10.70;99.90;;;;;;5061797;28;20106;-73
2023/09/26 06:03:12;;;;;;;0.40;0.40;;;10.80;99.90;;;;;;5065747;28;20409;-73
2023/09/26 06:05:38;;;;;;;0.40;0.40;;;10.80;99.90;;;;;;5047114;28;20039;-72
2023/09/26 06:08:04;;;;;;;0.43;0.43;;;10.80;99.90;;;;;;5054724;28;20048;-72
2023/09/26 06:10:30;;;;;;;0.65;0.65;;;10.80;99.90;;;;;;5064757;28;20462;-71
2023/09/26 06:12:55;;;;;;;0.40;0.40;;;10.80;99.90;;;;;;5057558;28;20093;-72
2023/09/26 06:15:22;;;;;;;0.40;0.40;;;10.80;99.90;;;;;;5054487;28;20044;-72
2023/09/26 06:17:48;;;;;;;0.52;0.47;;;10.80;99.90;;;;;;5062180;28;20086;-71
2023/09/26 06:20:13;;;;;;;0.43;0.43;;;10.80;99.90;;;;;;5056672;28;20040;-71
2023/09/26 06:22:39;;;;;;;0.85;0.85;;;10.90;99.90;;;;;;5043090;28;20039;-71
2023/09/26 06:25:05;;;;;;;0.32;0.32;;;10.90;99.90;;;;;;5038768;28;20440;-72
2023/09/26 06:27:37;;;;;;;0.30;0.30;;;11.00;99.90;;;;;;5042952;28;20042;-72
2023/09/26 06:30:04;;;;;;;0.35;0.35;;;11.00;99.90;;;;;;5069367;28;20036;-72
2023/09/26 06:32:31;;;;;;;0.60;0.60;;;11.00;99.90;;;;;;5069556;28;20085;-72
2023/09/26 06:34:59;;;;;;;0.35;0.35;;;11.10;99.90;;;;;;5056154;28;20032;-72
2023/09/26 06:37:25;;;;;;;0.50;0.50;;;11.10;99.90;;;;;;5067970;28;20035;-72
2023/09/26 06:39:51;;;;;;;0.40;0.40;;;11.20;99.90;;;;;;5060024;28;20032;-72
2023/09/26 06:42:17;;;;;;;0.38;0.38;;;11.20;99.90;;;;;;5064974;28;20142;-72
2023/09/26 06:44:43;;;;;;;0.40;0.40;;;11.20;99.90;;;;;;5064958;28;20127;-72
2023/09/26 06:47:08;;;;;;;0.50;0.50;;;11.40;99.90;;;;;;5058296;28;20041;-72
2023/09/26 06:49:34;;;;;;;0.30;0.30;;;11.40;99.90;;;;;;5056690;28;20036;-72
2023/09/26 06:52:01;;;;;;;0.50;0.50;;;11.50;99.90;;;;;;5061553;28;20036;-72
2023/09/26 06:54:26;;;;;;;0.40;0.40;;;11.50;99.90;;;;;;5061255;28;20040;-72
2023/09/26 06:56:52;;;;;;;0.40;0.40;;;11.60;99.90;;;;;;5062421;28;20451;-72
2023/09/26 06:59:18;;;;;;;0.38;0.38;;;11.60;99.90;;;;;;5066258;28;20562;-72
2023/09/26 07:01:43;;;;;;;0.32;0.32;;;11.70;99.90;;;;;;5060880;28;20052;-72
2023/09/26 07:04:14;;;;;;;0.95;0.77;;;11.70;99.90;;;;;;5061537;28;20087;-72
2023/09/26 07:06:41;;;;;;;0.85;0.68;;;11.80;99.90;;;;;;5054254;28;20444;-72
2023/09/26 07:09:07;;;;;;;0.40;0.40;;;11.90;99.90;;;;;;5059969;28;20037;-72
2023/09/26 07:11:33;;;;;;;0.40;0.40;;;12.00;99.90;;;;;;5049690;28;20040;-72
2023/09/26 07:13:59;;;;;;;0.50;0.50;;;12.00;99.90;;;;;;5062331;28;20054;-72
2023/09/26 07:16:25;;;;;;;0.40;0.40;;;12.20;99.90;;;;;;5061091;28;20087;-72
2023/09/26 07:18:51;;;;;;;0.35;0.35;;;12.20;99.90;;;;;;5060302;28;20088;-72
2023/09/26 07:21:17;;;;;;;0.60;0.60;;;12.30;99.90;;;;;;5064965;28;20447;-72
2023/09/26 07:23:42;;;;;;;0.52;0.52;;;12.40;99.90;;;;;;5051442;28;20052;-72
2023/09/26 07:26:14;;;;;;;0.40;0.40;;;12.50;99.90;;;;;;5065637;28;20047;-72
2023/09/26 07:28:41;;;;;;;0.40;0.40;;;12.60;99.90;;;;;;5064434;28;20038;-72
2023/09/26 07:31:10;;;;;;;1.83;1.00;;;12.50;99.90;;;;;;5069546;28;20474;-72
2023/09/26 07:33:38;;;;;;;0.63;0.63;;;12.70;99.90;;;;;;5065322;28;20127;-72
2023/09/26 07:36:04;;;;;;;0.47;0.47;;;12.70;99.90;;;;;;5069900;28;20045;-73
2023/09/26 07:38:31;;;;;;;0.57;0.57;;;12.80;99.90;;;;;;5062114;28;20040;-72
2023/09/26 07:40:57;;;;;;;0.50;0.50;;;12.90;99.90;;;;;;5058430;28;20039;-72
2023/09/26 07:43:29;;;;;;;0.63;0.63;;;12.90;99.90;;;;;;5062683;28;20376;-72
2023/09/26 07:46:05;;;;;;;0.40;0.40;;;13.00;99.90;;;;;;5059429;28;20097;-72
2023/09/26 07:48:31;;;;;;;0.70;0.70;;;13.10;99.90;;;;;;5056483;28;20056;-72
2023/09/26 07:50:57;;;;;;;0.60;0.60;;;13.20;99.90;;;;;;5042167;28;20546;-72
2023/09/26 07:53:23;;;;;;;2.38;2.17;;;13.30;99.90;;;;;;5058131;28;20048;-74
2023/09/26 07:55:48;;;;;;;1.15;1.15;;;13.40;99.90;;;;;;5037554;28;20044;-76
2023/09/26 07:58:15;;;;;;;0.65;0.65;;;13.50;99.90;;;;;;5058672;28;20119;-72
2023/09/26 08:00:42;;;;;;;0.55;0.47;;;13.60;99.90;;;;;;5060933;28;20223;-71
2023/09/26 08:03:07;;;;;;;0.90;0.90;;;13.60;99.90;;;;;;5056303;28;20063;-72
2023/09/26 08:05:33;;;;;;;0.57;0.57;;;13.70;99.90;;;;;;5066016;28;20474;-72
2023/09/26 08:08:03;;;;;;;0.70;0.70;;;13.80;99.90;;;;;;5051599;28;20498;-72
2023/09/26 08:10:29;;;;;;;0.45;0.45;;;13.90;99.90;;;;;;5053445;28;20112;-73
2023/09/26 08:12:55;;;;;;;1.55;1.45;;;14.00;99.90;;;;;;5065111;28;20127;-72
2023/09/26 08:15:21;;;;;;;1.02;1.02;;;14.10;99.90;;;;;;5060659;28;20041;-72
2023/09/26 08:17:47;;;;;;;0.68;0.60;;;14.20;99.90;;;;;;5060995;28;20079;-72
2023/09/26 08:20:12;;;;;;;1.05;0.80;;;14.30;99.90;;;;;;5064810;28;20080;-72
2023/09/26 08:22:38;;;;;;;3.17;0.85;;;14.50;99.90;;;;;;5062836;28;20040;-73
2023/09/26 08:25:04;;;;;;;0.60;0.60;;;14.60;99.90;;;;;;5059529;28;20121;-73
2023/09/26 08:27:31;;;;;;;0.82;0.82;;;14.60;99.90;;;;;;5050127;28;20243;-73
2023/09/26 08:29:59;;;;;;;0.70;0.70;;;14.80;99.90;;;;;;5063308;28;20521;-73
2023/09/26 08:32:26;;;;;;;0.77;0.77;;;14.90;99.90;;;;;;5065048;28;20032;-73
2023/09/26 08:34:51;;;;;;;0.60;0.60;;;15.00;99.90;;;;;;5047061;28;20123;-71
2023/09/26 08:37:17;;;;;;;0.40;0.40;;;15.10;99.90;;;;;;5060776;28;20167;-72
2023/09/26 08:39:47;;;;;;;0.70;0.70;;;15.20;99.90;;;;;;5065042;28;20505;-72
2023/09/26 08:42:27;;;;;;;0.73;0.73;;;15.30;99.90;;;;;;5070409;28;20045;-72
2023/09/26 08:44:54;;;;;;;0.60;0.60;;;15.50;99.90;;;;;;5057018;28;20116;-72
2023/09/26 08:47:24;;;;;;;0.95;0.95;;;15.60;99.90;;;;;;5055488;28;20108;-73
2023/09/26 08:49:53;;;;;;;0.40;0.40;;;15.80;99.90;;;;;;5059349;28;20037;-72
2023/09/26 08:52:20;;;;;;;0.85;0.85;;;15.90;99.90;;;;;;5046921;28;20474;-73
2023/09/26 08:54:46;;;;;;;1.00;1.00;;;16.00;99.90;;;;;;5066295;28;20046;-72
2023/09/26 08:57:12;;;;;;;0.57;0.57;;;16.00;99.90;;;;;;5040561;28;20132;-72
2023/09/26 08:59:39;;;;;;;0.85;0.80;;;16.10;99.90;;;;;;5057569;28;20491;-73
2023/09/26 09:02:05;;;;;;;0.75;0.68;;;16.20;99.90;;;;;;5015326;28;20064;-73
2023/09/26 09:04:30;;;;;;;0.50;0.50;;;16.40;99.90;;;;;;5038767;28;20044;-73
2023/09/26 09:07:06;;;;;;;1.00;0.82;;;16.50;99.90;;;;;;5037991;28;20060;-72
2023/09/26 09:09:32;;;;;;;0.40;0.40;;;16.60;99.90;;;;;;5036506;28;20449;-71
2023/09/26 09:11:59;;;;;;;1.23;1.13;;;16.70;99.90;;;;;;5036637;28;20061;-71
2023/09/26 09:14:35;;;;;;;1.02;0.95;;;16.90;99.90;;;;;;5048136;28;20124;-71
2023/09/26 09:17:01;;;;;;;0.30;0.30;;;17.00;99.90;;;;;;5043138;28;20029;-71
2023/09/26 09:19:52;;;;;;;0.40;0.40;;;17.20;99.90;;;;;;5047695;28;20059;-75
2023/09/26 09:22:20;;;;;;;0.50;0.50;;;17.30;99.90;;;;;;5018923;28;20041;-74
2023/09/26 09:24:53;;;;;;;;;;;17.50;99.90;;;;;;5039598;28;20470;-71
2023/09/26 09:27:34;;;;;;;1.33;1.20;;;17.60;99.90;;;;;;5025648;28;19917;-71
2023/09/26 09:30:19;;;;;;;0.80;0.80;;;17.80;99.90;;;;;;5039409;28;20055;-72
2023/09/26 09:32:45;;;;;;;1.05;1.05;;;18.00;99.90;;;;;;5041939;28;20505;-73
2023/09/26 09:35:13;;;;;;;0.65;0.65;;;18.10;99.90;;;;;;5043641;28;20037;-73
2023/09/26 09:37:42;;;;;;;0.80;0.80;;;18.30;99.90;;;;;;5047342;28;20477;-72
2023/09/26 09:40:08;;;;;;;8.60;2.05;;;18.30;99.90;;;;;;5040361;28;20039;-72
2023/09/26 09:42:35;;;;;;;0.68;0.68;;;18.40;99.90;;;;;;5047762;28;20364;-71
2023/09/26 09:45:01;;;;;;;0.70;0.70;;;18.60;99.90;;;;;;5047716;28;20040;-71
2023/09/26 09:47:30;;;;;;;0.90;0.90;;;18.80;99.90;;;;;;5036037;28;20478;-73
2023/09/26 09:50:00;;;;;;;0.60;0.60;;;19.00;99.90;;;;;;5036359;28;20045;-72
2023/09/26 09:52:32;;;;;;;0.68;0.68;;;19.10;99.90;;;;;;5038711;28;20047;-72
2023/09/26 09:55:01;;;;;;;2.22;1.40;;;19.20;99.90;;;;;;5032368;28;20128;-72
2023/09/26 09:57:31;;;;;;;0.57;0.57;;;19.30;99.90;;;;;;5042859;28;20041;-73
2023/09/26 09:59:58;;;;;;;0.90;0.90;;;19.30;99.90;;;;;;5047263;28;20084;-72
2023/09/26 10:02:24;;;;;;;0.57;0.57;;;19.40;99.90;;;;;;5065303;28;20550;-72
2023/09/26 10:04:55;;;;;;;0.70;0.70;;;19.50;99.90;;;;;;5075019;28;20042;-72
2023/09/26 10:07:24;;;;;;;2.08;1.95;;;19.50;99.90;;;;;;5070491;28;20048;-72
2023/09/26 10:09:52;;;;;;;0.95;0.95;;;19.50;99.90;;;;;;5075643;28;20089;-71
2023/09/26 10:12:19;;;;;;;0.98;0.98;;;19.60;99.90;;;;;;5065183;28;20083;-73
2023/09/26 10:14:45;;;;;;;0.55;0.55;;;19.60;99.90;;;;;;5060246;28;20119;-72
2023/09/26 10:17:11;;;;;;;1.02;1.02;;;19.80;99.90;;;;;;5047220;28;20131;-71
2023/09/26 10:19:39;;;;;;;0.75;0.75;;;19.90;99.90;;;;;;5067363;28;20219;-72
2023/09/26 10:22:14;;;;;;;2.13;1.65;;;20.00;99.90;;;;;;5069069;28;20068;-72
2023/09/26 10:24:53;;;;;;;0.98;0.98;;;20.00;99.90;;;;;;5061831;28;20044;-71
2023/09/26 10:27:31;;;;;;;0.88;0.88;;;20.10;99.90;;;;;;5049844;28;20093;-71
2023/09/26 10:29:58;;;;;;;0.65;0.65;;;20.10;99.90;;;;;;5058788;28;20032;-71
2023/09/26 10:32:34;;;;;;;1.27;1.17;;;20.20;99.90;;;;;;5068717;28;20050;-71
2023/09/26 10:35:23;;;;;;;1.80;1.70;;;20.20;99.90;;;;;;5062622;28;20044;-71
2023/09/26 10:37:53;;;;;;;1.42;1.33;;;20.20;99.90;;;;;;5061547;28;20063;-71
2023/09/26 10:40:19;;;;;;;0.65;0.65;;;20.30;99.90;;;;;;5069889;28;20390;-71
2023/09/26 10:42:49;;;;;;;0.52;0.52;;;20.30;99.90;;;;;;5066302;28;20035;-71
2023/09/26 10:45:16;;;;;;;0.65;0.65;;;20.40;99.90;;;;;;5065175;28;20116;-71
2023/09/26 10:47:42;;;;;;;1.50;1.45;;;20.50;99.90;;;;;;5068002;28;20038;-72
2023/09/26 10:50:12;;;;;;;1.13;1.13;;;20.50;99.90;;;;;;5059507;28;20041;-71
2023/09/26 10:52:41;;;;;;;1.75;1.35;;;20.50;99.90;;;;;;5059992;28;20490;-71
2023/09/26 10:55:10;;;;;;;1.15;1.10;;;20.50;99.90;;;;;;5070651;28;20054;-71
2023/09/26 10:57:37;;;;;;;1.00;0.98;;;20.60;99.90;;;;;;5052707;28;20032;-71
2023/09/26 11:00:11;;;;;;;1.02;0.95;;;20.60;99.90;;;;;;5062334;28;20039;-74
2023/09/26 11:02:37;;;;;;;0.50;0.50;;;20.70;99.90;;;;;;5057675;28;20043;-72
2023/09/26 11:05:11;;;;;;;0.68;0.68;;;20.70;99.90;;;;;;5063197;28;20537;-73
2023/09/26 11:07:38;;;;;;;1.42;1.33;;;20.70;99.90;;;;;;5060567;28;20056;-71
2023/09/26 11:10:05;;;;;;;0.50;0.50;;;20.80;99.90;;;;;;5067370;28;20051;-71
2023/09/26 11:12:31;;;;;;;1.05;1.00;;;20.80;99.90;;;;;;5059424;28;20422;-71
2023/09/26 11:15:00;;;;;;;0.70;0.70;;;20.90;99.90;;;;;;5042030;28;20039;-71
2023/09/26 11:17:29;;;;;;;0.57;0.57;;;20.90;99.90;;;;;;5051365;28;20043;-71
2023/09/26 11:19:59;;;;;;;0.73;0.73;;;20.90;99.90;;;;;;5065839;28;20084;-72
2023/09/26 11:22:25;;;;;;;1.35;1.35;;;21.00;99.90;;;;;;5064674;28;20051;-75
2023/09/26 11:25:07;;;;;;;0.68;0.68;;;21.10;99.90;;;;;;5065815;28;20526;-71
2023/09/26 11:27:45;;;;;;;0.40;0.40;;;21.20;99.90;;;;;;5069251;28;20040;-71
2023/09/26 11:30:19;;;;;;;0.40;0.40;;;21.30;99.90;;;;;;5063414;28;20036;-74
2023/09/26 11:32:48;;;;;;;0.68;0.68;;;21.40;99.90;;;;;;5061356;28;20040;-74
2023/09/26 11:35:19;;;;;;;0.50;0.50;;;21.50;99.90;;;;;;5063874;28;20082;-72
2023/09/26 11:37:49;;;;;;;0.63;0.63;;;21.60;99.90;;;;;;5067578;28;20433;-72
2023/09/26 11:40:26;;;;;;;0.88;0.88;;;21.60;99.90;;;;;;5051240;28;20094;-72
2023/09/26 11:42:55;;;;;;;0.30;0.30;;;21.60;99.90;;;;;;5064377;28;20363;-71
2023/09/26 11:45:26;;;;;;;0.70;0.70;;;21.60;99.90;;;;;;5057615;28;20485;-71
2023/09/26 11:47:59;;;;;;;0.50;0.50;;;21.50;99.90;;;;;;5065059;28;20794;-71
2023/09/26 11:50:27;;;;;;;1.08;0.55;;;21.60;99.90;;;;;;5067911;28;20495;-71
2023/09/26 11:53:03;;;;;;;1.00;0.60;;;21.60;99.90;;;;;;5061529;28;20045;-70
2023/09/26 11:55:33;;;;;;;0.70;0.70;;;21.60;99.90;;;;;;5069024;28;20089;-70
2023/09/26 11:57:59;;;;;;;0.30;0.30;;;21.60;99.90;;;;;;5060842;28;20028;-70
2023/09/26 12:00:26;;;;;;;0.68;0.68;;;21.60;99.90;;;;;;5035586;28;20059;-71
2023/09/26 12:02:52;;;;;;;2.05;1.25;;;21.60;99.90;;;;;;5064413;28;20048;-71
2023/09/26 12:05:25;;;;;;;0.40;0.40;;;21.50;99.90;;;;;;5063743;28;20045;-71
2023/09/26 12:07:52;;;;;;;0.73;0.73;;;21.50;99.90;;;;;;5056350;28;20033;-72
2023/09/26 12:10:18;;;;;;;0.50;0.50;;;21.50;99.90;;;;;;5063600;28;20548;-71
2023/09/26 12:12:45;;;;;;;1.45;0.75;;;21.50;99.90;;;;;;5060150;28;20124;-71
2023/09/26 12:15:25;;;;;;;0.30;0.30;;;21.50;99.90;;;;;;5069152;28;20042;-73
2023/09/26 12:17:52;;;;;;;0.85;0.85;;;21.60;99.90;;;;;;5064721;28;20301;-74
2023/09/26 12:20:24;;;;;;;0.65;0.65;;;21.60;99.90;;;;;;5068217;28;20457;-71
2023/09/26 12:22:51;;;;;;;0.60;0.60;;;21.60;99.90;;;;;;5067764;28;20060;-70
2023/09/26 12:25:19;;;;;;;1.02;1.02;;;21.60;99.90;;;;;;5068027;28;20789;-71
2023/09/26 12:27:45;;;;;;;0.95;0.88;;;21.60;99.90;;;;;;5062164;28;20059;-70
2023/09/26 12:30:12;;;;;;;0.75;0.73;;;21.70;99.90;;;;;;5065793;28;20040;-73
2023/09/26 12:32:38;;;;;;;0.40;0.40;;;21.70;99.90;;;;;;5067894;28;23629;-70
2023/09/26 12:35:05;;;;;;;0.30;0.30;;;21.80;99.90;;;;;;5061004;28;20043;-71
2023/09/26 12:37:31;;;;;;;0.60;0.60;;;21.90;99.90;;;;;;5068909;28;20581;-70
2023/09/26 12:39:57;;;;;;;0.47;0.47;;;21.90;99.90;;;;;;5061479;28;20044;-71
2023/09/26 12:42:25;;;;;;;0.50;0.50;;;21.90;99.90;;;;;;5058983;28;20562;-70
2023/09/26 12:44:51;;;;;;;2.22;0.60;;;22.00;99.90;;;;;;5064025;28;20060;-70
2023/09/26 12:47:17;;;;;;;0.88;0.88;;;22.00;99.90;;;;;;5057011;28;20040;-72
2023/09/26 12:49:49;;;;;;;1.63;0.45;;;22.00;99.90;;;;;;5068499;28;20459;-71